sensor_id;sensor_type;location;lat;lon;timestamp;pressure;altitude;pressure_sealevel;temperature;humidity
4972;BME280;2501;51.214;6.768;2023-05-08T00:02:29;101669.13;;;15.40;100.00
4972;BME280;2501;51.214;6.768;2023-05-08T00:04:58;101663.84;;;15.38;100.00
4972;BME280;2501;51.214;6.768;2023-05-08T00:07:26;101663.84;;;15.37;100.00
4972;BME280;2501;51.214;6.768;2023-05-08T00:09:55;101669.13;;;15.35;100.00
4972;BME280;2501;51.214;6.768;2023-05-08T00:12:26;101665.63;;;15.39;100.00
4972;BME280;2501;51.214;6.768;2023-05-08T00:14:54;101664.72;;;15.49;100.00
4972;BME280;2501;51.214;6.768;2023-05-08T00:17:22;101678.81;;;15.35;100.00
4972;BME280;2501;51.214;6.768;2023-05-08T00:19:51;101672.63;;;15.26;100.00
4972;BME280;2501;51.214;6.768;2023-05-08T00:22:19;101672.66;;;15.23;100.00
4972;BME280;2501;51.214;6.768;2023-05-08T00:24:48;101666.50;;;15.37;100.00
4972;BME280;2501;51.214;6.768;2023-05-08T00:27:16;101658.53;;;15.30;100.00
4972;BME280;2501;51.214;6.768;2023-05-08T00:29:47;101672.63;;;15.25;100.00
4972;BME280;2501;51.214;6.768;2023-05-08T00:32:16;101674.38;;;15.24;100.00
4972;BME280;2501;51.214;6.768;2023-05-08T00:34:44;101669.13;;;15.23;100.00
4972;BME280;2501;51.214;6.768;2023-05-08T00:37:13;101676.13;;;15.24;100.00
4972;BME280;2501;51.214;6.768;2023-05-08T00:39:41;101680.56;;;15.26;100.00
4972;BME280;2501;51.214;6.768;2023-05-08T00:42:09;101671.75;;;15.30;100.00
4972;BME280;2501;51.214;6.768;2023-05-08T00:44:38;101669.97;;;15.26;100.00
4972;BME280;2501;51.214;6.768;2023-05-08T00:47:09;101675.28;;;15.22;100.00
4972;BME280;2501;51.214;6.768;2023-05-08T00:49:37;101671.75;;;15.21;100.00
4972;BME280;2501;51.214;6.768;2023-05-08T00:52:06;101679.66;;;15.24;100.00
4972;BME280;2501;51.214;6.768;2023-05-08T00:54:35;101670.88;;;15.22;100.00
4972;BME280;2501;51.214;6.768;2023-05-08T00:57:05;101677.03;;;15.20;100.00
4972;BME280;2501;51.214;6.768;2023-05-08T00:59:34;101668.22;;;15.18;100.00
4972;BME280;2501;51.214;6.768;2023-05-08T01:02:09;101675.28;;;15.26;100.00
4972;BME280;2501;51.214;6.768;2023-05-08T01:04:38;101668.22;;;15.25;100.00
4972;BME280;2501;51.214;6.768;2023-05-08T01:07:09;101674.41;;;15.23;100.00
4972;BME280;2501;51.214;6.768;2023-05-08T01:09:38;101675.31;;;15.37;100.00
4972;BME280;2501;51.214;6.768;2023-05-08T01:12:12;101669.13;;;15.52;100.00
4972;BME280;2501;51.214;6.768;2023-05-08T01:14:58;101678.81;;;15.30;100.00
4972;BME280;2501;51.214;6.768;2023-05-08T01:17:39;101677.03;;;15.18;100.00
4972;BME280;2501;51.214;6.768;2023-05-08T01:20:19;101680.50;;;15.08;100.00
4972;BME280;2501;51.214;6.768;2023-05-08T01:26:10;101681.44;;;15.15;100.00
4972;BME280;2501;51.214;6.768;2023-05-08T01:29:17;101680.56;;;15.45;100.00
4972;BME280;2501;51.214;6.768;2023-05-08T01:32:18;101686.75;;;15.35;100.00
4972;BME280;2501;51.214;6.768;2023-05-08T01:34:57;101678.75;;;15.10;100.00
4972;BME280;2501;51.214;6.768;2023-05-08T01:37:34;101691.09;;;15.10;100.00
4972;BME280;2501;51.214;6.768;2023-05-08T01:40:09;101691.09;;;15.01;100.00
4972;BME280;2501;51.214;6.768;2023-05-08T01:42:48;101687.53;;;14.94;100.00
4972;BME280;2501;51.214;6.768;2023-05-08T01:45:21;101684.00;;;14.95;100.00
4972;BME280;2501;51.214;6.768;2023-05-08T01:48:04;101691.94;;;14.92;100.00
4972;BME280;2501;51.214;6.768;2023-05-08T01:50:37;101691.03;;;14.91;100.00
4972;BME280;2501;51.214;6.768;2023-05-08T01:53:14;101693.69;;;14.93;100.00
4972;BME280;2501;51.214;6.768;2023-05-08T01:55:46;101703.38;;;14.91;100.00
4972;BME280;2501;51.214;6.768;2023-05-08T01:58:15;101701.63;;;14.88;100.00
4972;BME280;2501;51.214;6.768;2023-05-08T02:00:45;101698.97;;;14.90;100.00
4972;BME280;2501;51.214;6.768;2023-05-08T02:03:19;101700.72;;;14.86;100.00
4972;BME280;2501;51.214;6.768;2023-05-08T02:05:50;101698.94;;;14.82;100.00
4972;BME280;2501;51.214;6.768;2023-05-08T02:08:20;101704.25;;;14.84;100.00
4972;BME280;2501;51.214;6.768;2023-05-08T02:10:50;101701.59;;;14.84;100.00
4972;BME280;2501;51.214;6.768;2023-05-08T02:13:20;101703.34;;;14.79;100.00
4972;BME280;2501;51.214;6.768;2023-05-08T02:15:50;101709.50;;;14.78;100.00
4972;BME280;2501;51.214;6.768;2023-05-08T02:18:22;101705.97;;;14.80;100.00
4972;BME280;2501;51.214;6.768;2023-05-08T02:20:53;101701.56;;;14.79;100.00
4972;BME280;2501;51.214;6.768;2023-05-08T02:23:24;101711.22;;;14.74;100.00
4972;BME280;2501;51.214;6.768;2023-05-08T02:25:54;101717.44;;;14.81;100.00
4972;BME280;2501;51.214;6.768;2023-05-08T02:28:23;101715.66;;;14.80;100.00
4972;BME280;2501;51.214;6.768;2023-05-08T02:30:53;101720.06;;;14.79;100.00
4972;BME280;2501;51.214;6.768;2023-05-08T02:33:26;101726.25;;;14.84;100.00
4972;BME280;2501;51.214;6.768;2023-05-08T02:35:55;101727.13;;;14.83;100.00
4972;BME280;2501;51.214;6.768;2023-05-08T02:38:25;101723.63;;;14.87;100.00
4972;BME280;2501;51.214;6.768;2023-05-08T02:40:56;101728.91;;;14.87;100.00
4972;BME280;2501;51.214;6.768;2023-05-08T02:43:28;101727.13;;;14.91;100.00
4972;BME280;2501;51.214;6.768;2023-05-08T02:46:01;101730.66;;;14.84;100.00
4972;BME280;2501;51.214;6.768;2023-05-08T02:48:39;101728.00;;;14.84;100.00
4972;BME280;2501;51.214;6.768;2023-05-08T02:51:17;101731.50;;;14.77;100.00
4972;BME280;2501;51.214;6.768;2023-05-08T02:53:54;101716.50;;;14.68;100.00
4972;BME280;2501;51.214;6.768;2023-05-08T02:56:33;101729.69;;;14.67;100.00
4972;BME280;2501;51.214;6.768;2023-05-08T02:59:13;101720.91;;;14.68;100.00
4972;BME280;2501;51.214;6.768;2023-05-08T03:01:48;101711.16;;;14.57;100.00
4972;BME280;2501;51.214;6.768;2023-05-08T03:04:24;101709.38;;;14.56;100.00
4972;BME280;2501;51.214;6.768;2023-05-08T03:06:56;101704.13;;;14.53;100.00
4972;BME280;2501;51.214;6.768;2023-05-08T03:09:30;101707.63;;;14.55;100.00
4972;BME280;2501;51.214;6.768;2023-05-08T03:12:02;101706.72;;;14.49;100.00
4972;BME280;2501;51.214;6.768;2023-05-08T03:14:36;101706.69;;;14.44;100.00
4972;BME280;2501;51.214;6.768;2023-05-08T03:17:07;101701.41;;;14.44;100.00
4972;BME280;2501;51.214;6.768;2023-05-08T03:19:48;101701.41;;;14.44;100.00
4972;BME280;2501;51.214;6.768;2023-05-08T03:22:18;101708.41;;;14.36;100.00
4972;BME280;2501;51.214;6.768;2023-05-08T03:24:48;101714.50;;;14.31;100.00
4972;BME280;2501;51.214;6.768;2023-05-08T03:27:18;101705.69;;;14.25;100.00
4972;BME280;2501;51.214;6.768;2023-05-08T03:29:47;101706.56;;;14.24;100.00
4972;BME280;2501;51.214;6.768;2023-05-08T03:32:18;101709.16;;;14.20;100.00
4972;BME280;2501;51.214;6.768;2023-05-08T03:34:50;101702.13;;;14.16;100.00
4972;BME280;2501;51.214;6.768;2023-05-08T03:37:20;101701.22;;;14.12;100.00
4972;BME280;2501;51.214;6.768;2023-05-08T03:39:50;101700.31;;;14.12;100.00
4972;BME280;2501;51.214;6.768;2023-05-08T03:42:18;101707.31;;;14.08;100.00
4972;BME280;2501;51.214;6.768;2023-05-08T03:44:49;101702.03;;;14.05;100.00
4972;BME280;2501;51.214;6.768;2023-05-08T03:47:19;101704.66;;;14.01;100.00
4972;BME280;2501;51.214;6.768;2023-05-08T03:49:53;101709.94;;;14.02;100.00
4972;BME280;2501;51.214;6.768;2023-05-08T03:52:22;101712.59;;;14.07;100.00
4972;BME280;2501;51.214;6.768;2023-05-08T03:54:50;101717.88;;;14.08;100.00
4972;BME280;2501;51.214;6.768;2023-05-08T03:57:19;101714.34;;;14.02;100.00
4972;BME280;2501;51.214;6.768;2023-05-08T03:59:53;101710.78;;;13.98;100.00
4972;BME280;2501;51.214;6.768;2023-05-08T04:02:30;101709.88;;;13.94;100.00
4972;BME280;2501;51.214;6.768;2023-05-08T04:05:08;101714.31;;;14.00;100.00
4972;BME280;2501;51.214;6.768;2023-05-08T04:07:42;101715.16;;;13.94;100.00
4972;BME280;2501;51.214;6.768;2023-05-08T04:10:20;101724.81;;;13.92;100.00
4972;BME280;2501;51.214;6.768;2023-05-08T04:12:56;101729.25;;;13.97;100.00
4972;BME280;2501;51.214;6.768;2023-05-08T04:15:28;101730.16;;;14.00;100.00
4972;BME280;2501;51.214;6.768;2023-05-08T04:17:59;101726.63;;;14.01;100.00
4972;BME280;2501;51.214;6.768;2023-05-08T04:20:34;101724.00;;;14.01;100.00
4972;BME280;2501;51.214;6.768;2023-05-08T04:23:03;101719.63;;;14.06;100.00
4972;BME280;2501;51.214;6.768;2023-05-08T04:25:35;101726.69;;;14.10;100.00
4972;BME280;2501;51.214;6.768;2023-05-08T04:28:04;101733.75;;;14.14;100.00
4972;BME280;2501;51.214;6.768;2023-05-08T04:30:33;101724.94;;;14.12;100.00
4972;BME280;2501;51.214;6.768;2023-05-08T04:33:02;101726.69;;;14.10;100.00
4972;BME280;2501;51.214;6.768;2023-05-08T04:35:35;101729.34;;;14.13;100.00
4972;BME280;2501;51.214;6.768;2023-05-08T04:38:03;101731.13;;;14.16;100.00
4972;BME280;2501;51.214;6.768;2023-05-08T04:40:32;101727.63;;;14.20;100.00
4972;BME280;2501;51.214;6.768;2023-05-08T04:43:00;101734.66;;;14.21;100.00
4972;BME280;2501;51.214;6.768;2023-05-08T04:45:29;101732.94;;;14.26;100.00
4972;BME280;2501;51.214;6.768;2023-05-08T04:47:59;101729.41;;;14.24;100.00
4972;BME280;2501;51.214;6.768;2023-05-08T04:50:27;101724.34;;;14.53;100.00
4972;BME280;2501;51.214;6.768;2023-05-08T04:52:58;101734.78;;;14.39;100.00
4972;BME280;2501;51.214;6.768;2023-05-08T04:55:27;101728.63;;;14.34;100.00
4972;BME280;2501;51.214;6.768;2023-05-08T04:57:55;101729.50;;;14.36;100.00
4972;BME280;2501;51.214;6.768;2023-05-08T05:00:24;101731.22;;;14.31;100.00
4972;BME280;2501;51.214;6.768;2023-05-08T05:02:55;101730.47;;;14.46;100.00
4972;BME280;2501;51.214;6.768;2023-05-08T05:05:24;101738.31;;;14.40;100.00
4972;BME280;2501;51.214;6.768;2023-05-08T05:07:53;101742.75;;;14.41;100.00
4972;BME280;2501;51.214;6.768;2023-05-08T05:10:24;101741.00;;;14.41;100.00
4972;BME280;2501;51.214;6.768;2023-05-08T05:12:52;101748.09;;;14.50;100.00
4972;BME280;2501;51.214;6.768;2023-05-08T05:15:21;101749.00;;;14.56;100.00
4972;BME280;2501;51.214;6.768;2023-05-08T05:17:49;101746.44;;;14.69;100.00
4972;BME280;2501;51.214;6.768;2023-05-08T05:20:18;101754.28;;;14.56;100.00
4972;BME280;2501;51.214;6.768;2023-05-08T05:22:46;101755.16;;;14.55;100.00
4972;BME280;2501;51.214;6.768;2023-05-08T05:25:15;101756.06;;;14.62;100.00
4972;BME280;2501;51.214;6.768;2023-05-08T05:27:46;101754.34;;;14.69;100.00
4972;BME280;2501;51.214;6.768;2023-05-08T05:30:15;101757.84;;;14.65;100.00
4972;BME280;2501;51.214;6.768;2023-05-08T05:32:43;101753.47;;;14.67;100.00
4972;BME280;2501;51.214;6.768;2023-05-08T05:35:12;101757.91;;;14.71;100.00
4972;BME280;2501;51.214;6.768;2023-05-08T05:37:41;101756.13;;;14.71;100.00
4972;BME280;2501;51.214;6.768;2023-05-08T05:40:10;101757.97;;;14.89;100.00
4972;BME280;2501;51.214;6.768;2023-05-08T05:42:39;101762.34;;;14.90;100.00
4972;BME280;2501;51.214;6.768;2023-05-08T05:45:11;101762.38;;;14.88;100.00
4972;BME280;2501;51.214;6.768;2023-05-08T05:47:43;101765.88;;;14.87;100.00
4972;BME280;2501;51.214;6.768;2023-05-08T05:50:14;101770.28;;;14.87;100.00
4972;BME280;2501;51.214;6.768;2023-05-08T05:52:46;101774.69;;;14.88;100.00
4972;BME280;2501;51.214;6.768;2023-05-08T05:55:14;101771.13;;;14.80;100.00
4972;BME280;2501;51.214;6.768;2023-05-08T05:57:43;101770.28;;;14.87;100.00
4972;BME280;2501;51.214;6.768;2023-05-08T06:00:15;101774.69;;;14.89;100.00
4972;BME280;2501;51.214;6.768;2023-05-08T06:02:44;101777.41;;;15.08;99.29
4972;BME280;2501;51.214;6.768;2023-05-08T06:05:13;101775.59;;;14.96;99.05
4972;BME280;2501;51.214;6.768;2023-05-08T06:07:56;101774.75;;;15.00;98.70
4972;BME280;2501;51.214;6.768;2023-05-08T06:10:25;101779.13;;;14.98;98.23
4972;BME280;2501;51.214;6.768;2023-05-08T06:12:53;101782.66;;;15.00;98.43
4972;BME280;2501;51.214;6.768;2023-05-08T06:15:24;101773.84;;;14.96;98.23
4972;BME280;2501;51.214;6.768;2023-05-08T06:17:53;101765.00;;;14.93;98.68
4972;BME280;2501;51.214;6.768;2023-05-08T06:20:21;101762.38;;;14.93;98.52
4972;BME280;2501;51.214;6.768;2023-05-08T06:22:50;101767.69;;;14.97;98.13
4972;BME280;2501;51.214;6.768;2023-05-08T06:25:19;101776.50;;;15.00;98.17
4972;BME280;2501;51.214;6.768;2023-05-08T06:27:47;101775.59;;;14.97;98.25
4972;BME280;2501;51.214;6.768;2023-05-08T06:30:16;101776.53;;;15.06;97.98
4972;BME280;2501;51.214;6.768;2023-05-08T06:32:47;101766.88;;;15.17;98.01
4972;BME280;2501;51.214;6.768;2023-05-08T06:35:16;101771.31;;;15.33;96.90
4972;BME280;2501;51.214;6.768;2023-05-08T06:37:45;101769.59;;;15.38;96.19
4972;BME280;2501;51.214;6.768;2023-05-08T06:40:13;101768.66;;;15.27;96.31
4972;BME280;2501;51.214;6.768;2023-05-08T06:42:42;101776.69;;;15.63;96.27
4972;BME280;2501;51.214;6.768;2023-05-08T06:45:10;101778.31;;;15.13;96.64
4972;BME280;2501;51.214;6.768;2023-05-08T06:47:39;101786.28;;;15.23;97.36
4972;BME280;2501;51.214;6.768;2023-05-08T06:50:10;101789.81;;;15.31;97.12
4972;BME280;2501;51.214;6.768;2023-05-08T06:52:39;101791.59;;;15.45;96.42
4972;BME280;2501;51.214;6.768;2023-05-08T06:55:08;101797.75;;;15.35;95.98
4972;BME280;2501;51.214;6.768;2023-05-08T06:57:36;101804.78;;;15.23;96.41
4972;BME280;2501;51.214;6.768;2023-05-08T07:00:06;101794.19;;;15.17;96.50
4972;BME280;2501;51.214;6.768;2023-05-08T07:02:34;101797.66;;;15.10;96.86
4972;BME280;2501;51.214;6.768;2023-05-08T07:05:04;101797.69;;;15.16;96.68
4972;BME280;2501;51.214;6.768;2023-05-08T07:07:35;101792.56;;;15.65;95.57
4972;BME280;2501;51.214;6.768;2023-05-08T07:10:04;101797.88;;;15.74;93.51
4972;BME280;2501;51.214;6.768;2023-05-08T07:12:32;101802.28;;;15.81;92.82
4972;BME280;2501;51.214;6.768;2023-05-08T07:15:01;101807.56;;;15.78;92.77
4972;BME280;2501;51.214;6.768;2023-05-08T07:17:29;101805.84;;;16.03;91.96
4972;BME280;2501;51.214;6.768;2023-05-08T07:20:01;101807.59;;;15.98;91.69
4972;BME280;2501;51.214;6.768;2023-05-08T07:22:29;101805.84;;;16.05;91.23
4972;BME280;2501;51.214;6.768;2023-05-08T07:25:01;101812.88;;;16.01;91.20
4972;BME280;2501;51.214;6.768;2023-05-08T07:27:29;101807.59;;;16.19;91.39
4972;BME280;2501;51.214;6.768;2023-05-08T07:29:58;101807.59;;;16.33;90.57
4972;BME280;2501;51.214;6.768;2023-05-08T07:32:28;101807.59;;;16.41;90.17
4972;BME280;2501;51.214;6.768;2023-05-08T07:34:57;101812.84;;;16.68;88.68
4972;BME280;2501;51.214;6.768;2023-05-08T07:37:27;101816.38;;;16.70;87.72
4972;BME280;2501;51.214;6.768;2023-05-08T07:39:55;101814.66;;;16.40;88.72
4972;BME280;2501;51.214;6.768;2023-05-08T07:42:26;101817.22;;;16.95;88.10
4972;BME280;2501;51.214;6.768;2023-05-08T07:44:55;101816.34;;;16.82;87.25
4972;BME280;2501;51.214;6.768;2023-05-08T07:47:23;101811.97;;;16.77;87.60
4972;BME280;2501;51.214;6.768;2023-05-08T07:49:53;101806.53;;;17.10;86.21
4972;BME280;2501;51.214;6.768;2023-05-08T07:52:21;101814.50;;;17.02;85.63
4972;BME280;2501;51.214;6.768;2023-05-08T07:54:50;101813.63;;;17.02;85.67
4972;BME280;2501;51.214;6.768;2023-05-08T07:57:19;101821.44;;;17.32;84.61
4972;BME280;2501;51.214;6.768;2023-05-08T07:59:50;101811.78;;;17.19;84.87
4972;BME280;2501;51.214;6.768;2023-05-08T08:02:18;101815.41;;;17.00;85.89
4972;BME280;2501;51.214;6.768;2023-05-08T08:04:47;101811.81;;;17.15;85.38
4972;BME280;2501;51.214;6.768;2023-05-08T08:07:15;101816.97;;;17.47;83.67
4972;BME280;2501;51.214;6.768;2023-05-08T08:09:43;101809.25;;;16.89;84.82
4972;BME280;2501;51.214;6.768;2023-05-08T08:12:12;101815.50;;;16.63;87.27
4972;BME280;2501;51.214;6.768;2023-05-08T08:14:41;101810.16;;;16.94;87.70
4972;BME280;2501;51.214;6.768;2023-05-08T08:17:12;101812.78;;;16.97;87.60
4972;BME280;2501;51.214;6.768;2023-05-08T08:19:40;101815.53;;;16.44;88.23
4972;BME280;2501;51.214;6.768;2023-05-08T08:22:08;101814.63;;;16.64;89.06
4972;BME280;2501;51.214;6.768;2023-05-08T08:24:37;101814.63;;;16.77;88.43
4972;BME280;2501;51.214;6.768;2023-05-08T08:27:05;101811.09;;;16.50;89.04
4972;BME280;2501;51.214;6.768;2023-05-08T08:29:34;101810.19;;;16.77;89.03
4972;BME280;2501;51.214;6.768;2023-05-08T08:32:02;101813.75;;;16.52;89.37
4972;BME280;2501;51.214;6.768;2023-05-08T08:34:34;101817.28;;;16.66;89.23
4972;BME280;2501;51.214;6.768;2023-05-08T08:37:04;101806.69;;;16.57;89.58
4972;BME280;2501;51.214;6.768;2023-05-08T08:39:32;101819.03;;;16.70;89.03
4972;BME280;2501;51.214;6.768;2023-05-08T08:42:01;101806.69;;;16.60;89.04
4972;BME280;2501;51.214;6.768;2023-05-08T08:44:30;101818.19;;;16.44;90.05
4972;BME280;2501;51.214;6.768;2023-05-08T08:46:59;101816.41;;;16.44;90.20
4972;BME280;2501;51.214;6.768;2023-05-08T08:49:30;101812.84;;;16.66;89.72
4972;BME280;2501;51.214;6.768;2023-05-08T08:52:09;101819.03;;;16.56;89.17
4972;BME280;2501;51.214;6.768;2023-05-08T08:54:40;101814.63;;;16.78;88.69
4972;BME280;2501;51.214;6.768;2023-05-08T08:57:11;101815.31;;;17.18;87.49
4972;BME280;2501;51.214;6.768;2023-05-08T08:59:43;101814.44;;;17.16;86.05
4972;BME280;2501;51.214;6.768;2023-05-08T09:02:12;101812.72;;;17.08;86.60
4972;BME280;2501;51.214;6.768;2023-05-08T09:04:42;101821.63;;;16.96;86.87
4972;BME280;2501;51.214;6.768;2023-05-08T09:07:13;101821.50;;;17.17;86.83
4972;BME280;2501;51.214;6.768;2023-05-08T09:09:43;101813.59;;;17.13;86.21
4972;BME280;2501;51.214;6.768;2023-05-08T09:12:13;101817.16;;;17.10;86.92
4972;BME280;2501;51.214;6.768;2023-05-08T09:14:41;101816.13;;;17.38;86.22
4972;BME280;2501;51.214;6.768;2023-05-08T09:17:10;101825.75;;;17.65;84.95
4972;BME280;2501;51.214;6.768;2023-05-08T09:19:39;101821.91;;;18.04;83.39
4972;BME280;2501;51.214;6.768;2023-05-08T09:22:08;101817.28;;;18.28;80.88
4972;BME280;2501;51.214;6.768;2023-05-08T09:24:58;101814.06;;;17.86;81.35
4972;BME280;2501;51.214;6.768;2023-05-08T09:27:28;101810.97;;;18.39;80.48
4972;BME280;2501;51.214;6.768;2023-05-08T09:29:59;101819.22;;;18.09;79.73
4972;BME280;2501;51.214;6.768;2023-05-08T09:32:29;101811.63;;;18.69;77.28
4972;BME280;2501;51.214;6.768;2023-05-08T09:34:58;101805.59;;;18.47;78.54
4972;BME280;2501;51.214;6.768;2023-05-08T09:37:27;101806.22;;;18.73;78.50
4972;BME280;2501;51.214;6.768;2023-05-08T09:42:55;101809.69;;;18.83;76.99
4972;BME280;2501;51.214;6.768;2023-05-08T09:45:27;101808.69;;;18.92;76.60
4972;BME280;2501;51.214;6.768;2023-05-08T09:47:56;101808.06;;;18.68;76.90
4972;BME280;2501;51.214;6.768;2023-05-08T09:50:24;101812.50;;;18.68;77.05
4972;BME280;2501;51.214;6.768;2023-05-08T09:52:53;101803.38;;;18.90;76.51
4972;BME280;2501;51.214;6.768;2023-05-08T09:55:22;101806.31;;;18.67;76.01
4972;BME280;2501;51.214;6.768;2023-05-08T09:57:52;101808.16;;;18.61;76.07
4972;BME280;2501;51.214;6.768;2023-05-08T10:00:24;101805.59;;;18.49;76.57
4972;BME280;2501;51.214;6.768;2023-05-08T10:02:56;101803.69;;;19.38;76.14
4972;BME280;2501;51.214;6.768;2023-05-08T10:05:26;101805.53;;;19.31;73.25
4972;BME280;2501;51.214;6.768;2023-05-08T10:07:56;101794.44;;;18.99;75.31
4972;BME280;2501;51.214;6.768;2023-05-08T10:10:26;101797.63;;;19.88;73.07
4972;BME280;2501;51.214;6.768;2023-05-08T10:12:56;101790.28;;;19.42;70.94
4972;BME280;2501;51.214;6.768;2023-05-08T10:15:29;101789.19;;;18.90;73.80
4972;BME280;2501;51.214;6.768;2023-05-08T10:18:02;101784.59;;;19.71;72.58
4972;BME280;2501;51.214;6.768;2023-05-08T10:20:33;101791.97;;;19.53;71.76
4972;BME280;2501;51.214;6.768;2023-05-08T10:23:03;101784.03;;;19.46;71.42
4972;BME280;2501;51.214;6.768;2023-05-08T10:25:41;101778.13;;;19.23;72.76
4972;BME280;2501;51.214;6.768;2023-05-08T10:28:15;101783.66;;;19.74;70.96
4972;BME280;2501;51.214;6.768;2023-05-08T10:30:49;101781.44;;;19.40;72.68
4972;BME280;2501;51.214;6.768;2023-05-08T10:33:20;101778.69;;;19.46;72.09
4972;BME280;2501;51.214;6.768;2023-05-08T10:35:50;101779.25;;;19.71;69.43
4972;BME280;2501;51.214;6.768;2023-05-08T10:38:18;101788.19;;;19.67;69.71
4972;BME280;2501;51.214;6.768;2023-05-08T10:40:47;101772.94;;;20.29;67.38
4972;BME280;2501;51.214;6.768;2023-05-08T10:43:22;101774.88;;;19.69;68.94
4972;BME280;2501;51.214;6.768;2023-05-08T10:45:55;101765.16;;;20.66;65.59
4972;BME280;2501;51.214;6.768;2023-05-08T10:48:30;101771.56;;;21.01;63.61
4972;BME280;2501;51.214;6.768;2023-05-08T10:51:04;101779.38;;;19.62;68.07
4972;BME280;2501;51.214;6.768;2023-05-08T10:53:37;101769.28;;;19.84;67.22
4972;BME280;2501;51.214;6.768;2023-05-08T10:56:07;101761.31;;;21.63;61.05
4972;BME280;2501;51.214;6.768;2023-05-08T10:58:36;101761.28;;;21.64;61.02
4972;BME280;2501;51.214;6.768;2023-05-08T11:01:15;101761.03;;;21.36;59.43
4972;BME280;2501;51.214;6.768;2023-05-08T11:03:45;101764.63;;;21.35;61.89
4972;BME280;2501;51.214;6.768;2023-05-08T11:06:15;101755.41;;;21.08;61.38
4972;BME280;2501;51.214;6.768;2023-05-08T11:08:48;101756.59;;;20.95;61.97
4972;BME280;2501;51.214;6.768;2023-05-08T11:11:27;101752.56;;;20.74;60.84
4972;BME280;2501;51.214;6.768;2023-05-08T11:14:08;101755.59;;;20.07;64.32
4972;BME280;2501;51.214;6.768;2023-05-08T11:17:07;101754.91;;;20.45;63.33
4972;BME280;2501;51.214;6.768;2023-05-08T11:19:36;101751.03;;;20.61;62.27
4972;BME280;2501;51.214;6.768;2023-05-08T11:22:16;101746.69;;;21.00;61.70
4972;BME280;2501;51.214;6.768;2023-05-08T11:24:55;101751.59;;;19.80;63.72
4972;BME280;2501;51.214;6.768;2023-05-08T11:30:18;101745.16;;;20.44;64.49
4972;BME280;2501;51.214;6.768;2023-05-08T11:33:14;101745.69;;;20.15;63.69
4972;BME280;2501;51.214;6.768;2023-05-08T11:35:50;101752.06;;;19.51;65.09
4972;BME280;2501;51.214;6.768;2023-05-08T11:38:28;101750.88;;;20.23;63.30
4972;BME280;2501;51.214;6.768;2023-05-08T11:41:02;101749.50;;;19.99;63.80
4972;BME280;2501;51.214;6.768;2023-05-08T11:43:49;101747.34;;;20.70;62.00
4972;BME280;2501;51.214;6.768;2023-05-08T11:46:22;101746.31;;;20.77;61.09
4972;BME280;2501;51.214;6.768;2023-05-08T11:48:59;101739.03;;;20.40;61.43
4972;BME280;2501;51.214;6.768;2023-05-08T11:51:30;101744.41;;;20.37;61.89
4972;BME280;2501;51.214;6.768;2023-05-08T11:53:59;101738.44;;;20.23;61.80
4972;BME280;2501;51.214;6.768;2023-05-08T11:56:28;101739.09;;;19.87;62.62
4972;BME280;2501;51.214;6.768;2023-05-08T11:59:01;101744.00;;;20.59;62.05
4972;BME280;2501;51.214;6.768;2023-05-08T12:01:30;101741.19;;;20.19;61.42
4972;BME280;2501;51.214;6.768;2023-05-08T12:04:03;101741.19;;;20.19;62.60
4972;BME280;2501;51.214;6.768;2023-05-08T12:06:33;101741.75;;;20.80;61.31
4972;BME280;2501;51.214;6.768;2023-05-08T12:09:03;101736.78;;;21.07;58.88
4972;BME280;2501;51.214;6.768;2023-05-08T12:11:36;101745.50;;;21.53;58.38
4972;BME280;2501;51.214;6.768;2023-05-08T12:14:05;101738.34;;;21.56;57.95
4972;BME280;2501;51.214;6.768;2023-05-08T12:16:34;101747.88;;;21.29;58.97
4972;BME280;2501;51.214;6.768;2023-05-08T12:19:08;101742.13;;;21.05;59.33
4972;BME280;2501;51.214;6.768;2023-05-08T12:21:37;101742.22;;;20.59;60.98
4972;BME280;2501;51.214;6.768;2023-05-08T12:24:08;101740.09;;;20.29;62.45
4972;BME280;2501;51.214;6.768;2023-05-08T12:26:40;101742.06;;;21.10;59.79
4972;BME280;2501;51.214;6.768;2023-05-08T12:29:09;101743.34;;;20.46;62.21
4972;BME280;2501;51.214;6.768;2023-05-08T12:31:37;101743.06;;;20.12;64.46
4972;BME280;2501;51.214;6.768;2023-05-08T12:34:09;101747.41;;;20.17;65.24
4972;BME280;2501;51.214;6.768;2023-05-08T12:36:37;101743.78;;;20.23;65.74
4972;BME280;2501;51.214;6.768;2023-05-08T12:39:10;101734.47;;;20.45;64.58
4972;BME280;2501;51.214;6.768;2023-05-08T12:41:46;101736.81;;;20.62;64.25
4972;BME280;2501;51.214;6.768;2023-05-08T12:44:16;101735.44;;;20.86;62.72
4972;BME280;2501;51.214;6.768;2023-05-08T12:46:46;101733.84;;;20.30;64.11
4972;BME280;2501;51.214;6.768;2023-05-08T12:49:25;101727.09;;;20.10;63.27
4972;BME280;2501;51.214;6.768;2023-05-08T12:52:04;101723.97;;;20.38;62.95
4972;BME280;2501;51.214;6.768;2023-05-08T12:54:35;101724.66;;;19.98;62.48
4972;BME280;2501;51.214;6.768;2023-05-08T12:57:10;101722.00;;;19.98;63.60
4972;BME280;2501;51.214;6.768;2023-05-08T12:59:39;101726.28;;;20.56;61.46
4972;BME280;2501;51.214;6.768;2023-05-08T13:02:12;101715.66;;;20.96;61.84
4972;BME280;2501;51.214;6.768;2023-05-08T13:04:44;101715.47;;;20.64;61.90
4972;BME280;2501;51.214;6.768;2023-05-08T13:07:12;101709.47;;;21.36;61.04
4972;BME280;2501;51.214;6.768;2023-05-08T13:09:55;101697.56;;;21.49;60.98
4972;BME280;2501;51.214;6.768;2023-05-08T13:12:24;101703.94;;;21.43;58.95
4972;BME280;2501;51.214;6.768;2023-05-08T13:14:52;101700.66;;;20.92;62.16
4972;BME280;2501;51.214;6.768;2023-05-08T13:17:20;101707.75;;;20.02;66.11
4972;BME280;2501;51.214;6.768;2023-05-08T13:19:51;101704.56;;;20.76;65.16
4972;BME280;2501;51.214;6.768;2023-05-08T13:22:20;101701.47;;;20.53;65.97
4972;BME280;2501;51.214;6.768;2023-05-08T13:24:51;101700.06;;;21.19;65.07
4972;BME280;2501;51.214;6.768;2023-05-08T13:27:19;101688.06;;;22.08;61.85
4972;BME280;2501;51.214;6.768;2023-05-08T13:29:48;101682.00;;;22.02;59.67
4972;BME280;2501;51.214;6.768;2023-05-08T13:32:16;101687.88;;;23.37;56.68
4972;BME280;2501;51.214;6.768;2023-05-08T13:34:45;101689.03;;;23.28;55.08
4972;BME280;2501;51.214;6.768;2023-05-08T13:37:16;101689.50;;;21.86;59.85